Etusivu
METAR-TAF:

METAR-TAF

Lentoasemat :

Granada, Espanja

Leveyspiiri: 37-11N, Pituuspiiri: 003-47W, korkeus merenpinnasta: 567 m

Tämänhetkinen sää

Tämä raportti tehtiin 38 minuuttia sitten, kello 12.00 UTC
Tuuli 8 kn lännestä, vaihdellen lounaan ja pohjoisen/luoteen välillä
Lämpötila 8°C
Kosteus 61%
Ilmanpaine 1008 hPa
Näkyvyys 10 km tai enemmän
Muutamia pilviä 3500 ft:n korkeudessa
Hajanaisia pilviä 4500 ft:n korkeudessa

METAR: LEGR 151200Z 27008KT 220V330 9999 FEW035 SCT045 08/01 Q1008

Aika: 13:38 (12:38 UTC)

Sääennuste

Tämä raportti tehtiin 4 tuntia ja 38 minuuttia sitten, kello 08.00 UTC
Ennuste voimassa 15. päivästä klo 09 UTC - 16. päivään klo 09 UTC
Tuuli 7 kn lännestä
Näkyvyys 10 km tai enemmän
Hajanaisia pilviä 2500 ft:n korkeudessa
Hajonneita pilviä 4500 ft:n korkeudessa

TAF: LEGR 150800Z 1509/1609 28007KT 9999 SCT025 BKN045 TX09/1514Z TNM01/1607Z

Säähavainnot ja -ennusteet yli 4000 lentoasemalta (METAR- ja TAF-raportit).

Käytössä olevat sääasemat on merkitty karttaan keltaisilla ja punaisilla pisteillä.

Aseta hiiri pisteen päälle nähdäksesi sääaseman nimen.

Klikkaa sitten nähdäksesi säähavainnot ja -ennusteet.

Kartan vaihtaminen: klikkaa mustalla rastilla varustettuja vihreitä pisteitä, niin voit zoomata sisään; viivalla varustettua vihreää pistettä, niin voit zoomata ulos tai vihreitä nuolia, niin pääset viereisille kartoille.


METAR-TAF: